FW0910 Weather Reports


Display with metric or nautical units.
time (UTC)temp
F
wind
direction
speed
MPH
gust
MPH
rain 1hr
in
rain 24hr
in
rain mn
in
humidity
%
barometer
mb
20190420005617 89 202 1.0 2.0 0.00 0.00 0.00 21 1005.6
20190420004617 89 225 2.0 3.0 0.00 0.00 0.00 20 1005.6
20190420003617 90 225 2.0 4.0 0.00 0.00 0.00 20 1005.7
20190420002617 91 225 3.0 5.0 0.00 0.00 0.00 21 1005.7
20190420001616 92 202 5.0 7.0 0.00 0.00 0.00 19 1005.5
20190420000617 92 202 6.0 9.0 0.00 0.00 0.00 18 1005.6
20190419235617 92 225 4.0 7.0 0.00 0.00 0.00 19 1005.7
20190419234616 92 202 6.0 8.0 0.00 0.00 0.00 18 1005.9
20190419233617 94 202 6.0 8.0 0.00 0.00 0.00 19 1005.8
20190419232616 94 202 6.0 8.0 0.00 0.00 0.00 18 1005.8
20190419231617 95 225 6.0 10.0 0.00 0.00 0.00 19 1005.9
20190419230617 95 202 6.0 9.0 0.00 0.00 0.00 18 1005.9
20190419225617 96 202 7.0 11.0 0.00 0.00 0.00 18 1005.7
20190419224616 97 202 6.0 9.0 0.00 0.00 0.00 19 1005.8
20190419223616 97 202 8.0 11.0 0.00 0.00 0.00 16 1005.9
20190419222617 96 202 5.0 8.0 0.00 0.00 0.00 17 1005.9
20190419221617 96 202 6.0 11.0 0.00 0.00 0.00 17 1005.9
20190419220617 96 202 7.0 9.0 0.00 0.00 0.00 17 1006.2
20190419215617 97 202 9.0 14.0 0.00 0.00 0.00 17 1006.3
20190419214617 97 202 8.0 11.0 0.00 0.00 0.00 16 1006.4
20190419213616 97 202 8.0 10.0 0.00 0.00 0.00 16 1006.5
20190419212617 98 202 9.0 15.0 0.00 0.00 0.00 16 1006.6
20190419211616 97 202 7.0 9.0 0.00 0.00 0.00 16 1006.8
20190419210616 97 202 10.0 13.0 0.00 0.00 0.00 16 1006.7
20190419205616 98 202 10.0 13.0 0.00 0.00 0.00 15 1006.9
20190419204616 98 225 8.0 12.0 0.00 0.00 0.00 16 1007.0
20190419203616 97 202 9.0 12.0 0.00 0.00 0.00 16 1007.0
20190419202617 97 180 7.0 11.0 0.00 0.00 0.00 16 1007.0
20190419201616 98 180 3.0 6.0 0.00 0.00 0.00 16 1007.3
20190419200616 98 180 5.0 9.0 0.00 0.00 0.00 15 1007.4
20190419195616 97 202 9.0 13.0 0.00 0.00 0.00 15 1007.3
20190419194616 97 202 6.0 8.0 0.00 0.00 0.00 15 1007.5
20190419193616 97 157 4.0 6.0 0.00 0.00 0.00 15 1007.8
20190419192615 97 202 7.0 10.0 0.00 0.00 0.00 14 1007.7
20190419191617 97 247 3.0 4.0 0.00 0.00 0.00 15 1007.8
20190419190621 96 180 4.0 7.0 0.00 0.00 0.00 15 1007.8
20190419185616 96 180 6.0 8.0 0.00 0.00 0.00 14 1007.8
20190419184618 97 180 2.0 5.0 0.00 0.00 0.00 14 1008.2
20190419183616 96 22 2.0 4.0 0.00 0.00 0.00 17 1008.3
20190419182616 95 22 1.0 2.0 0.00 0.00 0.00 17 1008.3
20190419181616 95 22 2.0 2.0 0.00 0.00 0.00 18 1008.8
20190419180616 95 0.0 1.0 0.00 0.00 0.00 16 1008.8
20190419175616 94 0.0 1.0 0.00 0.00 0.00 16 1008.9
20190419174616 92 22 1.0 1.0 0.00 0.00 0.00 17 1009.0
20190419173616 92 22 1.0 2.0 0.00 0.00 0.00 16 1009.0
20190419172616 91 0.0 0.0 0.00 0.00 0.00 20 1008.9
20190419171616 90 22 1.0 2.0 0.00 0.00 0.00 21 1009.0
20190419170616 89 22 2.0 3.0 0.00 0.00 0.00 21 1009.2
20190419165615 88 22 2.0 3.0 0.00 0.00 0.00 24 1009.1
20190419164616 87 45 1.0 3.0 0.00 0.00 0.00 23 1009.0
20190419163616 85 45 1.0 3.0 0.00 0.00 0.00 26 1008.9
20190419162615 84 0.0 1.0 0.00 0.00 0.00 32 1009.1
20190419161615 83 45 2.0 2.0 0.00 0.00 0.00 27 1009.0
20190419160616 82 45 1.0 2.0 0.00 0.00 0.00 29 1008.9
20190419155616 81 45 3.0 3.0 0.00 0.00 0.00 29 1008.9
20190419154616 80 45 1.0 2.0 0.00 0.00 0.00 33 1009.0
20190419153615 78 45 1.0 2.0 0.00 0.00 0.00 33 1008.9
20190419152615 77 45 1.0 2.0 0.00 0.00 0.00 34 1008.9
20190419151615 76 45 2.0 3.0 0.00 0.00 0.00 34 1009.0
20190419150615 74 45 2.0 3.0 0.00 0.00 0.00 38 1008.8
20190419145616 72 45 2.0 3.0 0.00 0.00 0.00 41 1008.9
20190419144615 70 45 3.0 4.0 0.00 0.00 0.00 41 1009.0
20190419143616 68 22 2.0 4.0 0.00 0.00 0.00 43 1008.9
20190419142615 66 45 1.0 2.0 0.00 0.00 0.00 49 1008.7
20190419141616 65 22 3.0 4.0 0.00 0.00 0.00 48 1008.7
20190419140618 64 22 1.0 3.0 0.00 0.00 0.00 48 1008.6
20190419135617 62 45 2.0 3.0 0.00 0.00 0.00 50 1008.5
20190419134629 60 45 2.0 3.0 0.00 0.00 0.00 51 1008.4
20190419133617 58 45 3.0 4.0 0.00 0.00 0.00 53 1008.4
20190419132618 57 45 1.0 2.0 0.00 0.00 0.00 60 1008.4
20190419131617 57 45 1.0 2.0 0.00 0.00 0.00 59 1008.3
20190419130617 58 0.0 0.0 0.00 0.00 0.00 60 1008.3
20190419125618 59 45 1.0 2.0 0.00 0.00 0.00 54 1008.1
20190419124617 60 45 2.0 2.0 0.00 0.00 0.00 51 1008.0
20190419123617 60 45 2.0 3.0 0.00 0.00 0.00 49 1008.0
20190419122617 60 45 2.0 3.0 0.00 0.00 0.00 50 1008.0
20190419121632 58 45 2.0 3.0 0.00 0.00 0.00 52 1008.1
20190419120618 58 0.0 1.0 0.00 0.00 0.00 56 1008.2
20190419115618 58 337 1.0 2.0 0.00 0.00 0.00 55 1008.1
20190419114617 58 337 2.0 2.0 0.00 0.00 0.00 56 1008.2
20190419113619 57 337 2.0 2.0 0.00 0.00 0.00 58 1008.1
20190419112617 57 337 2.0 3.0 0.00 0.00 0.00 58 1008.1
20190419111618 57 0.0 1.0 0.00 0.00 0.00 60 1008.1
20190419110617 57 337 1.0 2.0 0.00 0.00 0.00 60 1008.0
20190419105621 56 0.0 1.0 0.00 0.00 0.00 61 1008.2
20190419104617 56 0.0 0.0 0.00 0.00 0.00 60 1008.2
20190419103617 57 0.0 0.0 0.00 0.00 0.00 59 1008.2
20190419102617 58 0.0 1.0 0.00 0.00 0.00 58 1008.1
20190419101617 58 0.0 0.0 0.00 0.00 0.00 56 1008.3
20190419100617 59 0.0 0.0 0.00 0.00 0.00 56 1008.3
20190419095616 60 337 1.0 1.0 0.00 0.00 0.00 54 1008.3
20190419094617 61 0.0 0.0 0.00 0.00 0.00 52 1008.5
20190419093617 62 0.0 0.0 0.00 0.00 0.00 50 1008.7
20190419092616 62 0.0 0.0 0.00 0.00 0.00 49 1008.6
20190419091617 63 0.0 0.0 0.00 0.00 0.00 47 1008.6
20190419090616 64 337 1.0 1.0 0.00 0.00 0.00 46 1008.7
20190419085627 65 0.0 1.0 0.00 0.00 0.00 43 1008.6
20190419084617 67 337 1.0 1.0 0.00 0.00 0.00 39 1008.7
20190419083620 69 0.0 1.0 0.00 0.00 0.00 38 1008.8
20190419082617 70 0.0 0.0 0.00 0.00 0.00 36 1008.9
20190419081617 71 315 1.0 1.0 0.00 0.00 0.00 34 1009.1
20190419080617 71 337 2.0 4.0 0.00 0.00 0.00 33 1009.0
20190419075616 72 22 1.0 1.0 0.00 0.00 0.00 34 1009.1
20190419074616 72 22 3.0 5.0 0.00 0.00 0.00 33 1009.0
20190419073618 71 45 2.0 3.0 0.00 0.00 0.00 34 1009.3
20190419072618 71 22 1.0 2.0 0.00 0.00 0.00 35 1009.4
20190419071618 71 22 1.0 2.0 0.00 0.00 0.00 34 1009.4
20190419070617 71 45 2.0 4.0 0.00 0.00 0.00 33 1009.5
20190419065617 71 337 1.0 2.0 0.00 0.00 0.00 34 1009.5
20190419064618 71 0.0 1.0 0.00 0.00 0.00 35 1009.6
20190419063617 71 292 1.0 1.0 0.00 0.00 0.00 36 1009.6
20190419062617 71 292 1.0 2.0 0.00 0.00 0.00 35 1009.5
20190419061617 71 292 1.0 2.0 0.00 0.00 0.00 36 1009.4
20190419060617 71 0.0 2.0 0.00 0.00 0.00 37 1009.4
20190419055617 69 337 1.0 2.0 0.00 0.00 0.00 38 1009.4
20190419054617 68 337 1.0 2.0 0.00 0.00 0.00 41 1009.5
20190419053617 69 22 1.0 2.0 0.00 0.00 0.00 41 1009.4
20190419052617 71 22 1.0 2.0 0.00 0.00 0.00 39 1009.3
20190419051617 74 0.0 0.0 0.00 0.00 0.00 37 1009.2
20190419050627 75 0.0 0.0 0.00 0.00 0.00 33 1009.2
20190419045617 76 22 1.0 1.0 0.00 0.00 0.00 32 1009.1
20190419044617 76 292 1.0 3.0 0.00 0.00 0.00 32 1008.9
20190419043617 77 315 2.0 3.0 0.00 0.00 0.00 32 1008.9
20190419042617 77 337 1.0 3.0 0.00 0.00 0.00 33 1008.9
20190419041617 77 0 2.0 4.0 0.00 0.00 0.00 33 1009.0
20190419040617 78 337 3.0 5.0 0.00 0.00 0.00 33 1009.0
20190419035617 78 315 2.0 3.0 0.00 0.00 0.00 32 1008.7
20190419034617 78 315 2.0 3.0 0.00 0.00 0.00 32 1008.6
20190419033617 78 315 2.0 8.0 0.00 0.00 0.00 32 1008.5
20190419032617 79 270 2.0 4.0 0.00 0.00 0.00 32 1008.4
20190419031617 79 0 4.0 8.0 0.00 0.00 0.00 31 1008.2
20190419030617 80 337 3.0 4.0 0.00 0.00 0.00 31 1008.1
20190419025617 79 270 2.0 4.0 0.00 0.00 0.00 31 1008.1
20190419024617 80 0 1.0 3.0 0.00 0.00 0.00 31 1008.1
20190419023617 80 0 1.0 2.0 0.00 0.00 0.00 31 1007.9
20190419022617 81 292 2.0 6.0 0.00 0.00 0.00 30 1007.7
20190419021617 81 315 2.0 4.0 0.00 0.00 0.00 29 1007.7
20190419020618 82 67 2.0 4.0 0.00 0.00 0.00 29 1007.7
20190419015617 82 270 4.0 7.0 0.00 0.00 0.00 28 1007.6
20190419014616 83 315 1.0 2.0 0.00 0.00 0.00 28 1007.6
20190419013616 84 0 3.0 7.0 0.00 0.00 0.00 27 1007.4
20190419012618 85 292 2.0 4.0 0.00 0.00 0.00 26 1007.6
20190419011617 86 292 2.0 3.0 0.00 0.00 0.00 26 1007.5
20190419010616 87 315 2.0 5.0 0.00 0.00 0.00 25 1007.6